Time;durP1;ratioP1;P1;durP2;ratioP2;P2;SDS_P1;SDS_P2;PMS_P1;PMS_P2;Temp;Humidity;BMP_temperature;BMP_pressure;BME280_temperature;BME280_humidity;BME280_pressure;Samples;Min_cycle;Max_cycle;Signal;HPM_P1;HPM_P2
2023/02/10 00:00:16;;;;;;;35.40;16.30;;;;;;;;;;5112504;28;20506;-82
2023/02/10 00:02:43;;;;;;;30.97;17.07;;;;;;;;;;5112008;28;20807;-82
2023/02/10 00:05:10;;;;;;;21.70;11.00;;;;;;;;;;5113193;28;21137;-81
2023/02/10 00:07:38;;;;;;;15.17;9.93;;;;;;;;;;5112380;28;20858;-82
2023/02/10 00:10:06;;;;;;;24.27;10.43;;;;;;;;;;5099210;28;20447;-81
2023/02/10 00:12:32;;;;;;;35.20;17.07;;;;;;;;;;5111872;28;20464;-82
2023/02/10 00:14:59;;;;;;;16.57;10.03;;;;;;;;;;5112342;28;20449;-82
2023/02/10 00:17:26;;;;;;;22.77;12.33;;;;;;;;;;5111953;28;20450;-81
2023/02/10 00:19:53;;;;;;;34.37;15.60;;;;;;;;;;5112466;28;20441;-82
2023/02/10 00:22:19;;;;;;;17.33;11.80;;;;;;;;;;5111812;28;20460;-81
2023/02/10 00:24:47;;;;;;;12.33;7.03;;;;;;;;;;5099152;28;20446;-82
2023/02/10 00:27:14;;;;;;;8.00;6.10;;;;;;;;;;5098812;28;20484;-85
2023/02/10 00:29:41;;;;;;;6.30;4.83;;;;;;;;;;5111847;28;20790;-83
2023/02/10 00:32:07;;;;;;;7.43;5.60;;;;;;;;;;5111880;28;20460;-81
2023/02/10 00:34:34;;;;;;;10.93;5.63;;;;;;;;;;5098263;28;20518;-82
2023/02/10 00:37:01;;;;;;;8.97;5.77;;;;;;;;;;5111905;28;20477;-82
2023/02/10 00:39:28;;;;;;;8.40;5.90;;;;;;;;;;5098326;28;20900;-83
2023/02/10 00:41:56;;;;;;;11.20;6.37;;;;;;;;;;5098110;28;20972;-82
2023/02/10 00:44:22;;;;;;;8.80;6.00;;;;;;;;;;5111140;28;21005;-81
2023/02/10 00:46:49;;;;;;;11.40;6.60;;;;;;;;;;5111787;28;20843;-82
2023/02/10 00:49:16;;;;;;;12.37;7.37;;;;;;;;;;5097674;28;20615;-82
2023/02/10 00:51:43;;;;;;;11.03;6.00;;;;;;;;;;5103805;28;20457;-82
2023/02/10 00:54:11;;;;;;;8.77;5.70;;;;;;;;;;5106437;28;20506;-82
2023/02/10 00:56:38;;;;;;;16.23;9.37;;;;;;;;;;5111693;28;21032;-82
2023/02/10 00:59:06;;;;;;;12.00;8.20;;;;;;;;;;5111655;28;20461;-82
2023/02/10 01:01:33;;;;;;;9.43;6.37;;;;;;;;;;5111374;28;20457;-82
2023/02/10 01:04:01;;;;;;;14.20;7.27;;;;;;;;;;5111052;28;20449;-82
2023/02/10 01:06:27;;;;;;;6.53;5.67;;;;;;;;;;5102098;28;20462;-82
2023/02/10 01:08:54;;;;;;;6.77;5.53;;;;;;;;;;5107484;28;20492;-81
2023/02/10 01:11:21;;;;;;;6.00;4.27;;;;;;;;;;5111897;28;20453;-82
2023/02/10 01:13:48;;;;;;;7.80;5.47;;;;;;;;;;5098008;28;20899;-82
2023/02/10 01:16:17;;;;;;;7.97;5.23;;;;;;;;;;5111557;28;20455;-83
2023/02/10 01:18:44;;;;;;;7.97;6.10;;;;;;;;;;5111985;28;20449;-81
2023/02/10 01:21:13;;;;;;;7.63;4.90;;;;;;;;;;5100992;28;20454;-82
2023/02/10 01:23:41;;;;;;;7.13;5.37;;;;;;;;;;5109184;28;20445;-82
2023/02/10 01:26:08;;;;;;;9.43;6.33;;;;;;;;;;5100309;28;20451;-81
2023/02/10 01:28:35;;;;;;;9.43;5.60;;;;;;;;;;5108908;28;20492;-81
2023/02/10 01:31:05;;;;;;;10.77;5.87;;;;;;;;;;5100639;28;20446;-82
2023/02/10 01:33:33;;;;;;;8.10;4.90;;;;;;;;;;5109804;28;20457;-82
2023/02/10 01:36:04;;;;;;;11.00;4.40;;;;;;;;;;5111613;28;20452;-82
2023/02/10 01:38:31;;;;;;;5.83;3.27;;;;;;;;;;5097769;28;20453;-81
2023/02/10 01:40:58;;;;;;;10.20;5.87;;;;;;;;;;5111607;28;20472;-82
2023/02/10 01:43:24;;;;;;;11.23;7.67;;;;;;;;;;5105620;28;20446;-82
2023/02/10 01:45:51;;;;;;;11.43;6.63;;;;;;;;;;5104204;28;20919;-82
2023/02/10 01:48:18;;;;;;;7.57;5.97;;;;;;;;;;5111453;28;20489;-82
2023/02/10 01:50:51;;;;;;;15.87;5.47;;;;;;;;;;5111446;28;20445;-82
2023/02/10 01:53:18;;;;;;;11.07;7.33;;;;;;;;;;5107220;28;20499;-82
2023/02/10 01:55:46;;;;;;;7.30;4.37;;;;;;;;;;5108603;28;20449;-82
2023/02/10 01:58:16;;;;;;;7.53;5.37;;;;;;;;;;5102987;28;20453;-82
2023/02/10 02:00:43;;;;;;;8.97;5.37;;;;;;;;;;5114850;28;20445;-81
2023/02/10 02:03:10;;;;;;;9.63;5.83;;;;;;;;;;5105700;28;20457;-82
2023/02/10 02:05:38;;;;;;;15.53;5.37;;;;;;;;;;5096846;28;20442;-82
2023/02/10 02:08:09;;;;;;;7.67;4.17;;;;;;;;;;5114544;28;20489;-81
2023/02/10 02:10:52;;;;;;;9.33;4.77;;;;;;;;;;5114881;28;20449;-82
2023/02/10 02:13:29;;;;;;;8.40;5.43;;;;;;;;;;5114747;28;20467;-81
2023/02/10 02:16:00;;;;;;;5.20;4.70;;;;;;;;;;5101662;28;20877;-81
2023/02/10 02:18:34;;;;;;;11.73;6.47;;;;;;;;;;5114510;28;20449;-81
2023/02/10 02:21:33;;;;;;;12.60;7.07;;;;;;;;;;5114513;28;20834;-81
2023/02/10 02:24:36;;;;;;;9.13;6.10;;;;;;;;;;5039289;28;20461;-81
2023/02/10 02:27:20;;;;;;;8.07;5.90;;;;;;;;;;5112727;28;20573;-82
2023/02/10 02:30:08;;;;;;;6.87;5.00;;;;;;;;;;5114564;28;20455;-82
2023/02/10 02:32:39;;;;;;;11.77;5.57;;;;;;;;;;5101008;28;20465;-81
2023/02/10 02:35:08;;;;;;;7.97;4.83;;;;;;;;;;5098495;28;20498;-81
2023/02/10 02:37:38;;;;;;;8.60;6.03;;;;;;;;;;5113937;28;20449;-81
2023/02/10 02:40:05;;;;;;;5.20;4.10;;;;;;;;;;5100617;28;20453;-81
2023/02/10 02:42:33;;;;;;;8.27;5.87;;;;;;;;;;5114006;28;20453;-82
2023/02/10 02:45:02;;;;;;;9.33;7.03;;;;;;;;;;5114449;28;20465;-81
2023/02/10 02:47:39;;;;;;;9.77;6.57;;;;;;;;;;5113837;28;20460;-82
2023/02/10 02:50:18;;;;;;;9.00;6.43;;;;;;;;;;5102121;28;20453;-81
2023/02/10 02:52:54;;;;;;;6.90;6.00;;;;;;;;;;5111210;28;20515;-82
2023/02/10 02:55:26;;;;;;;5.97;4.40;;;;;;;;;;5104867;28;20501;-81
2023/02/10 02:57:55;;;;;;;10.10;6.20;;;;;;;;;;5113923;28;20514;-81
2023/02/10 03:00:25;;;;;;;7.70;5.47;;;;;;;;;;5113690;28;20456;-81
2023/02/10 03:02:54;;;;;;;7.27;5.53;;;;;;;;;;5113689;28;20453;-80
2023/02/10 03:05:23;;;;;;;9.20;6.83;;;;;;;;;;5113896;28;20507;-81
2023/02/10 03:07:50;;;;;;;9.90;6.43;;;;;;;;;;5113848;28;20485;-81
2023/02/10 03:10:17;;;;;;;15.10;7.40;;;;;;;;;;5113099;28;20956;-81
2023/02/10 03:12:44;;;;;;;8.60;5.30;;;;;;;;;;5113504;28;20457;-81
2023/02/10 03:15:11;;;;;;;58.27;22.30;;;;;;;;;;5114126;28;20461;-81
2023/02/10 03:17:38;;;;;;;61.10;27.87;;;;;;;;;;5113215;28;20457;-81
2023/02/10 03:20:07;;;;;;;20.37;9.50;;;;;;;;;;5113285;28;20489;-81
2023/02/10 03:22:34;;;;;;;9.27;5.83;;;;;;;;;;5113791;28;20468;-81
2023/02/10 03:25:00;;;;;;;11.57;8.23;;;;;;;;;;5111683;28;20458;-81
2023/02/10 03:27:27;;;;;;;11.03;7.33;;;;;;;;;;5101142;28;20441;-81
2023/02/10 03:29:54;;;;;;;12.40;7.10;;;;;;;;;;5113402;28;20458;-81
2023/02/10 03:32:21;;;;;;;9.73;6.20;;;;;;;;;;5113285;28;20441;-81
2023/02/10 03:34:48;;;;;;;19.00;10.00;;;;;;;;;;5113011;28;20453;-81
2023/02/10 03:37:16;;;;;;;17.20;11.60;;;;;;;;;;5112874;28;20445;-81
2023/02/10 03:39:43;;;;;;;16.53;10.57;;;;;;;;;;5109987;28;20494;-81
2023/02/10 03:42:11;;;;;;;16.27;10.97;;;;;;;;;;5102764;28;20453;-81
2023/02/10 03:44:38;;;;;;;13.40;8.60;;;;;;;;;;5112922;28;20512;-81
2023/02/10 03:47:04;;;;;;;14.83;8.40;;;;;;;;;;5113069;28;20510;-81
2023/02/10 03:49:31;;;;;;;10.53;6.50;;;;;;;;;;5112866;28;20882;-81
2023/02/10 03:51:58;;;;;;;7.70;5.23;;;;;;;;;;5102705;28;20442;-81
2023/02/10 03:54:26;;;;;;;11.17;6.90;;;;;;;;;;5108643;28;20441;-81
2023/02/10 03:56:53;;;;;;;9.63;7.20;;;;;;;;;;5112356;28;20532;-81
2023/02/10 03:59:19;;;;;;;11.50;7.50;;;;;;;;;;5109628;28;20490;-81
2023/02/10 04:01:46;;;;;;;52.53;29.43;;;;;;;;;;5102277;28;20814;-82
2023/02/10 04:04:13;;;;;;;36.57;21.50;;;;;;;;;;5112680;28;20445;-81
2023/02/10 04:06:40;;;;;;;23.40;16.07;;;;;;;;;;5112345;28;20518;-81
2023/02/10 04:09:06;;;;;;;22.57;13.93;;;;;;;;;;5095020;28;20443;-81
2023/02/10 04:11:35;;;;;;;22.97;14.80;;;;;;;;;;5092043;28;20974;-81
2023/02/10 04:14:01;;;;;;;21.97;14.90;;;;;;;;;;5109976;28;20456;-81
2023/02/10 04:16:29;;;;;;;21.67;13.57;;;;;;;;;;5100417;28;20984;-81
2023/02/10 04:18:56;;;;;;;21.67;10.67;;;;;;;;;;5110600;28;20566;-81
2023/02/10 04:21:24;;;;;;;14.10;9.80;;;;;;;;;;5112152;28;20963;-83
2023/02/10 04:23:51;;;;;;;16.00;9.93;;;;;;;;;;5112341;28;20449;-81
2023/02/10 04:26:18;;;;;;;8.00;6.17;;;;;;;;;;5112205;28;20964;-81
2023/02/10 04:28:46;;;;;;;8.40;5.47;;;;;;;;;;5092637;28;20879;-81
2023/02/10 04:31:13;;;;;;;6.97;4.47;;;;;;;;;;5104116;28;20465;-81
2023/02/10 04:33:39;;;;;;;7.93;4.40;;;;;;;;;;5098302;28;21091;-81
2023/02/10 04:36:07;;;;;;;10.53;5.47;;;;;;;;;;5111822;28;20538;-81
2023/02/10 04:38:35;;;;;;;4.50;4.03;;;;;;;;;;5091581;28;20478;-81
2023/02/10 04:41:02;;;;;;;8.87;5.20;;;;;;;;;;5105660;28;20975;-81
2023/02/10 04:43:29;;;;;;;6.30;4.77;;;;;;;;;;5111700;28;20449;-81
2023/02/10 04:45:57;;;;;;;4.83;4.17;;;;;;;;;;5111663;28;20453;-80
2023/02/10 04:48:24;;;;;;;5.40;4.57;;;;;;;;;;5111391;28;20450;-82
2023/02/10 04:50:52;;;;;;;8.50;5.47;;;;;;;;;;5110334;28;20453;-81
2023/02/10 04:53:19;;;;;;;6.90;5.43;;;;;;;;;;5099358;28;20537;-81
2023/02/10 04:55:46;;;;;;;8.97;5.13;;;;;;;;;;5111718;28;20449;-81
2023/02/10 04:58:13;;;;;;;8.83;5.43;;;;;;;;;;5109874;28;20448;-81
2023/02/10 05:00:39;;;;;;;6.03;4.13;;;;;;;;;;5111409;28;20477;-80
2023/02/10 05:03:07;;;;;;;7.03;5.13;;;;;;;;;;5111190;28;20445;-80
2023/02/10 05:05:34;;;;;;;9.43;4.67;;;;;;;;;;5109362;28;20453;-81
2023/02/10 05:08:01;;;;;;;9.37;5.13;;;;;;;;;;5106744;28;20514;-80
2023/02/10 05:10:27;;;;;;;10.00;5.37;;;;;;;;;;5102654;28;20959;-81
2023/02/10 05:12:54;;;;;;;9.93;6.63;;;;;;;;;;5112004;28;20429;-80
2023/02/10 05:15:21;;;;;;;13.83;7.47;;;;;;;;;;5111268;28;20823;-80
2023/02/10 05:17:48;;;;;;;34.10;20.20;;;;;;;;;;5111535;28;20457;-85
2023/02/10 05:20:16;;;;;;;47.93;28.20;;;;;;;;;;5095808;28;20507;-81
2023/02/10 05:22:43;;;;;;;28.47;15.63;;;;;;;;;;5101002;28;20437;-79
2023/02/10 05:25:10;;;;;;;24.17;14.47;;;;;;;;;;5100060;28;20505;-77
2023/02/10 05:27:37;;;;;;;20.80;13.83;;;;;;;;;;5106490;28;20999;-80
2023/02/10 05:30:06;;;;;;;32.80;20.33;;;;;;;;;;5107054;28;20967;-81
2023/02/10 05:32:33;;;;;;;26.77;16.30;;;;;;;;;;5115907;28;20449;-82
2023/02/10 05:34:59;;;;;;;17.97;11.73;;;;;;;;;;5115360;28;20457;-81
2023/02/10 05:37:27;;;;;;;17.40;11.07;;;;;;;;;;5114829;28;20449;-81
2023/02/10 05:39:54;;;;;;;12.93;8.10;;;;;;;;;;5102789;28;20856;-82
2023/02/10 05:42:21;;;;;;;14.07;8.53;;;;;;;;;;5109742;28;20848;-81
2023/02/10 05:44:48;;;;;;;27.37;11.27;;;;;;;;;;5106775;28;20464;-82
2023/02/10 05:47:14;;;;;;;20.53;12.03;;;;;;;;;;5109662;28;20446;-81
2023/02/10 05:49:41;;;;;;;18.00;10.07;;;;;;;;;;5094878;28;20454;-81
2023/02/10 05:52:08;;;;;;;11.97;8.37;;;;;;;;;;5094854;28;20458;-82
2023/02/10 05:54:36;;;;;;;11.87;7.37;;;;;;;;;;5094697;28;20458;-81
2023/02/10 05:57:03;;;;;;;37.30;18.23;;;;;;;;;;5114321;28;20449;-82
2023/02/10 05:59:30;;;;;;;35.00;17.87;;;;;;;;;;5114294;28;21080;-81
2023/02/10 06:01:59;;;;;;;26.53;16.03;;;;;;;;;;5114929;28;20449;-81
2023/02/10 06:04:26;;;;;;;22.73;16.73;;;;;;;;;;5114095;28;20446;-82
2023/02/10 06:06:53;;;;;;;23.00;14.80;;;;;;;;;;5114411;28;20514;-82
2023/02/10 06:09:22;;;;;;;42.57;24.00;;;;;;;;;;5100899;28;20520;-82
2023/02/10 06:11:50;;;;;;;40.10;20.73;;;;;;;;;;5114869;28;20502;-82
2023/02/10 06:14:17;;;;;;;20.03;12.10;;;;;;;;;;5107666;28;20516;-81
2023/02/10 06:16:44;;;;;;;9.53;5.83;;;;;;;;;;5093871;28;20450;-82
2023/02/10 06:19:10;;;;;;;7.97;5.07;;;;;;;;;;5107947;28;20482;-81
2023/02/10 06:21:37;;;;;;;31.57;13.73;;;;;;;;;;5107308;28;20457;-82
2023/02/10 06:24:04;;;;;;;35.47;17.47;;;;;;;;;;5100891;28;20951;-81
2023/02/10 06:26:31;;;;;;;18.30;12.53;;;;;;;;;;5113589;28;20464;-82
2023/02/10 06:28:59;;;;;;;12.23;9.33;;;;;;;;;;5101337;28;20479;-82
2023/02/10 06:31:26;;;;;;;8.03;7.10;;;;;;;;;;5114329;28;20452;-82
2023/02/10 06:33:53;;;;;;;9.97;6.63;;;;;;;;;;5114021;28;20883;-82
2023/02/10 06:36:19;;;;;;;8.47;7.63;;;;;;;;;;5098928;28;20458;-82
2023/02/10 06:38:47;;;;;;;9.50;5.90;;;;;;;;;;5093378;28;20515;-82
2023/02/10 06:41:14;;;;;;;7.33;5.57;;;;;;;;;;5108960;28;20824;-82
2023/02/10 06:43:41;;;;;;;6.17;5.17;;;;;;;;;;5113421;28;20453;-82
2023/02/10 06:46:10;;;;;;;9.33;5.67;;;;;;;;;;5113432;28;20518;-82
2023/02/10 06:48:37;;;;;;;8.90;5.87;;;;;;;;;;5104259;28;20481;-82
2023/02/10 06:51:05;;;;;;;10.13;6.27;;;;;;;;;;5109746;28;20450;-83
2023/02/10 06:53:32;;;;;;;10.53;6.97;;;;;;;;;;5113237;28;20998;-83
2023/02/10 06:55:59;;;;;;;7.00;5.50;;;;;;;;;;5113791;28;20449;-83
2023/02/10 06:58:26;;;;;;;6.70;5.57;;;;;;;;;;5103798;28;20458;-83
2023/02/10 07:00:53;;;;;;;7.50;5.70;;;;;;;;;;5106148;28;20550;-85
2023/02/10 07:03:21;;;;;;;5.00;4.23;;;;;;;;;;5102956;28;20453;-86
2023/02/10 07:05:48;;;;;;;7.40;5.53;;;;;;;;;;5113225;28;21024;-88
2023/02/10 07:08:15;;;;;;;7.83;4.87;;;;;;;;;;5103375;28;20514;-87
2023/02/10 07:10:41;;;;;;;3.30;3.00;;;;;;;;;;5106742;28;20442;-86
2023/02/10 07:13:08;;;;;;;3.23;2.90;;;;;;;;;;5103901;28;20445;-87
2023/02/10 07:15:35;;;;;;;12.60;4.23;;;;;;;;;;5113445;28;20510;-86
2023/02/10 07:18:02;;;;;;;14.77;7.83;;;;;;;;;;5112761;28;21081;-86
2023/02/10 07:20:30;;;;;;;4.77;3.53;;;;;;;;;;5099765;28;20492;-86
2023/02/10 07:23:00;;;;;;;4.13;3.50;;;;;;;;;;5113622;28;20448;-88
2023/02/10 07:25:27;;;;;;;6.73;4.33;;;;;;;;;;5094658;28;20457;-87
2023/02/10 07:27:53;;;;;;;6.57;4.73;;;;;;;;;;5105571;28;20480;-87
2023/02/10 07:30:20;;;;;;;4.63;3.43;;;;;;;;;;5099385;28;20983;-87
2023/02/10 07:32:47;;;;;;;5.50;4.03;;;;;;;;;;5101408;28;20504;-86
2023/02/10 07:35:14;;;;;;;6.13;4.20;;;;;;;;;;5112573;28;20456;-86
2023/02/10 07:37:42;;;;;;;5.13;3.37;;;;;;;;;;5112800;28;20457;-85
2023/02/10 07:40:10;;;;;;;7.37;4.27;;;;;;;;;;5112517;28;21096;-85
2023/02/10 07:42:36;;;;;;;5.90;4.87;;;;;;;;;;5099912;28;20446;-84
2023/02/10 07:45:04;;;;;;;6.27;4.63;;;;;;;;;;5092874;28;20466;-82
2023/02/10 07:47:31;;;;;;;5.80;5.07;;;;;;;;;;5105909;28;20457;-84
2023/02/10 07:49:57;;;;;;;4.83;3.60;;;;;;;;;;5105249;28;20446;-83
2023/02/10 07:52:24;;;;;;;6.70;4.37;;;;;;;;;;5105988;28;20453;-83
2023/02/10 07:54:53;;;;;;;8.27;4.20;;;;;;;;;;5092622;28;20492;-84
2023/02/10 07:57:19;;;;;;;5.03;4.13;;;;;;;;;;5107537;28;20830;-83
2023/02/10 07:59:46;;;;;;;5.97;4.27;;;;;;;;;;5112502;28;20234;-83
2023/02/10 08:02:13;;;;;;;7.90;4.70;;;;;;;;;;5098452;28;20446;-82
2023/02/10 08:04:40;;;;;;;9.17;4.37;;;;;;;;;;5112886;28;20203;-83
2023/02/10 08:07:07;;;;;;;8.73;4.93;;;;;;;;;;5098509;28;20203;-83
2023/02/10 08:09:34;;;;;;;6.60;4.93;;;;;;;;;;5112280;28;20211;-83
2023/02/10 08:12:05;;;;;;;7.77;4.80;;;;;;;;;;5112100;28;20294;-83
2023/02/10 08:14:32;;;;;;;7.67;5.10;;;;;;;;;;5112456;28;20199;-83
2023/02/10 08:16:58;;;;;;;7.20;4.73;;;;;;;;;;5098706;28;20652;-83
2023/02/10 08:19:25;;;;;;;5.63;4.00;;;;;;;;;;5112345;28;20206;-83
2023/02/10 08:21:52;;;;;;;6.13;4.00;;;;;;;;;;5109916;28;20574;-83
2023/02/10 08:24:19;;;;;;;7.47;4.17;;;;;;;;;;5092168;28;20197;-83
2023/02/10 08:26:45;;;;;;;5.20;3.73;;;;;;;;;;5108173;28;20317;-82
2023/02/10 08:29:13;;;;;;;5.80;3.70;;;;;;;;;;5103297;28;20226;-83
2023/02/10 08:31:40;;;;;;;4.67;3.20;;;;;;;;;;5107986;28;20210;-83
2023/02/10 08:34:15;;;;;;;5.67;4.67;;;;;;;;;;5111906;28;20666;-83
2023/02/10 08:36:45;;;;;;;5.43;4.57;;;;;;;;;;5111946;28;20705;-83
2023/02/10 08:39:12;;;;;;;10.10;6.20;;;;;;;;;;5112668;28;20243;-83
2023/02/10 08:41:39;;;;;;;14.93;8.63;;;;;;;;;;5111839;28;20245;-83
2023/02/10 08:44:06;;;;;;;23.13;12.87;;;;;;;;;;5111827;28;20227;-83
2023/02/10 08:46:35;;;;;;;34.43;17.40;;;;;;;;;;5111831;28;20207;-83
2023/02/10 08:49:02;;;;;;;15.13;7.97;;;;;;;;;;5112063;28;20203;-83
2023/02/10 08:51:32;;;;;;;23.37;13.73;;;;;;;;;;5106413;28;20208;-83
2023/02/10 08:54:01;;;;;;;9.57;6.83;;;;;;;;;;5091616;28;20231;-83
2023/02/10 08:56:27;;;;;;;10.87;7.77;;;;;;;;;;5097705;28;20702;-83
2023/02/10 08:58:54;;;;;;;6.10;4.83;;;;;;;;;;5098674;28;20211;-83
2023/02/10 09:01:25;;;;;;;6.57;4.80;;;;;;;;;;5100130;28;20230;-82
2023/02/10 09:03:53;;;;;;;15.30;4.67;;;;;;;;;;5114959;28;20203;-87
2023/02/10 09:06:23;;;;;;;6.43;3.90;;;;;;;;;;5103676;28;20206;-82
2023/02/10 09:08:52;;;;;;;4.67;2.83;;;;;;;;;;5115827;28;20707;-81
2023/02/10 09:11:19;;;;;;;6.13;4.40;;;;;;;;;;5115580;28;20199;-82
2023/02/10 09:13:46;;;;;;;9.83;3.67;;;;;;;;;;5114978;28;20195;-82
2023/02/10 09:16:13;;;;;;;3.37;2.80;;;;;;;;;;5106494;28;20212;-82
2023/02/10 09:18:40;;;;;;;3.90;3.10;;;;;;;;;;5111501;28;20203;-82
2023/02/10 09:21:08;;;;;;;6.90;3.53;;;;;;;;;;5105897;28;20314;-82
2023/02/10 09:23:34;;;;;;;4.97;3.27;;;;;;;;;;5108908;28;20196;-82
2023/02/10 09:26:02;;;;;;;4.63;3.50;;;;;;;;;;5105172;28;20208;-82
2023/02/10 09:28:28;;;;;;;4.17;2.80;;;;;;;;;;5111665;28;20213;-82
2023/02/10 09:30:55;;;;;;;2.17;1.93;;;;;;;;;;5105504;28;20257;-82
2023/02/10 09:33:23;;;;;;;4.33;3.13;;;;;;;;;;5114954;28;20212;-82
2023/02/10 09:35:50;;;;;;;5.47;3.83;;;;;;;;;;5115112;28;20208;-82
2023/02/10 09:38:18;;;;;;;4.40;3.50;;;;;;;;;;5115202;28;20206;-82
2023/02/10 09:40:52;;;;;;;3.43;2.87;;;;;;;;;;5114692;28;20713;-82
2023/02/10 09:43:29;;;;;;;3.47;3.10;;;;;;;;;;5109475;28;20232;-81
2023/02/10 09:46:02;;;;;;;4.43;3.03;;;;;;;;;;5108063;28;20210;-82
2023/02/10 09:48:37;;;;;;;4.37;2.97;;;;;;;;;;5103567;28;20207;-82
2023/02/10 09:51:10;;;;;;;4.93;3.27;;;;;;;;;;5114505;28;20199;-82
2023/02/10 09:53:38;;;;;;;3.20;2.50;;;;;;;;;;5115094;28;20203;-82
2023/02/10 09:56:10;;;;;;;26.53;9.43;;;;;;;;;;5100884;28;20199;-82
2023/02/10 09:58:42;;;;;;;6.67;4.20;;;;;;;;;;5114757;28;20196;-82
2023/02/10 10:01:16;;;;;;;4.90;3.20;;;;;;;;;;5114623;28;20263;-82
2023/02/10 10:03:47;;;;;;;4.90;3.50;;;;;;;;;;5114472;28;20203;-82
2023/02/10 10:06:19;;;;;;;4.47;3.60;;;;;;;;;;5094087;28;20284;-81
2023/02/10 10:08:54;;;;;;;3.43;2.70;;;;;;;;;;5096068;28;20211;-82
2023/02/10 10:11:26;;;;;;;3.67;2.93;;;;;;;;;;5104334;28;20196;-81
2023/02/10 10:13:54;;;;;;;5.53;4.07;;;;;;;;;;5110816;28;20200;-81
2023/02/10 10:16:28;;;;;;;5.33;3.27;;;;;;;;;;5104501;28;20207;-81
2023/02/10 10:19:05;;;;;;;5.87;3.37;;;;;;;;;;5112920;28;20202;-82
2023/02/10 10:21:39;;;;;;;3.87;2.97;;;;;;;;;;5114055;28;20646;-81
2023/02/10 10:24:25;;;;;;;3.67;2.57;;;;;;;;;;5114769;28;20279;-82
2023/02/10 10:27:02;;;;;;;4.87;3.17;;;;;;;;;;5114436;28;20272;-81
2023/02/10 10:29:39;;;;;;;4.13;3.20;;;;;;;;;;5114004;28;20229;-81
2023/02/10 10:32:14;;;;;;;5.20;3.33;;;;;;;;;;5100479;28;20199;-82
2023/02/10 10:34:43;;;;;;;9.37;3.30;;;;;;;;;;5100137;28;20589;-82
2023/02/10 10:37:16;;;;;;;4.87;2.90;;;;;;;;;;5113985;28;20198;-82
2023/02/10 10:39:49;;;;;;;3.53;2.80;;;;;;;;;;5114082;28;20622;-81
2023/02/10 10:42:22;;;;;;;4.10;3.03;;;;;;;;;;5113653;28;20235;-82
2023/02/10 10:44:50;;;;;;;4.03;3.17;;;;;;;;;;5109420;28;20239;-82
2023/02/10 10:47:21;;;;;;;3.60;3.10;;;;;;;;;;5104711;28;20264;-82
2023/02/10 10:49:47;;;;;;;3.83;2.60;;;;;;;;;;5113851;28;20200;-82
2023/02/10 10:52:27;;;;;;;3.10;2.70;;;;;;;;;;5113872;28;20218;-82
2023/02/10 10:54:56;;;;;;;4.73;3.17;;;;;;;;;;5093654;28;20286;-82
2023/02/10 10:57:23;;;;;;;4.03;2.80;;;;;;;;;;5094377;28;20208;-82
2023/02/10 10:59:54;;;;;;;4.03;3.43;;;;;;;;;;5105673;28;20201;-82
2023/02/10 11:02:23;;;;;;;3.63;2.63;;;;;;;;;;5094288;28;20224;-82
2023/02/10 11:05:01;;;;;;;2.53;2.33;;;;;;;;;;5113466;28;20199;-82
2023/02/10 11:07:30;;;;;;;2.60;2.23;;;;;;;;;;5096015;28;20199;-83
2023/02/10 11:10:00;;;;;;;3.87;2.80;;;;;;;;;;5104119;28;20257;-83
2023/02/10 11:12:29;;;;;;;7.03;3.37;;;;;;;;;;5094752;28;20698;-83
2023/02/10 11:14:57;;;;;;;4.60;3.40;;;;;;;;;;5105166;28;20231;-80
2023/02/10 11:17:27;;;;;;;3.73;3.23;;;;;;;;;;5094240;28;20215;-80
2023/02/10 11:19:56;;;;;;;4.17;3.23;;;;;;;;;;5105946;28;20204;-80
2023/02/10 11:22:23;;;;;;;4.10;3.37;;;;;;;;;;5092459;28;20228;-80
2023/02/10 11:24:52;;;;;;;3.50;3.13;;;;;;;;;;5105329;28;20191;-80
2023/02/10 11:27:20;;;;;;;3.50;2.87;;;;;;;;;;5100300;28;20207;-80
2023/02/10 11:29:52;;;;;;;4.20;3.50;;;;;;;;;;5111624;28;20271;-81
2023/02/10 11:32:24;;;;;;;4.03;2.97;;;;;;;;;;5101411;28;20211;-81
2023/02/10 11:34:52;;;;;;;6.43;3.60;;;;;;;;;;5112655;28;20705;-80
2023/02/10 11:37:22;;;;;;;7.13;4.30;;;;;;;;;;5102232;28;20250;-81
2023/02/10 11:39:50;;;;;;;3.10;2.70;;;;;;;;;;5110099;28;20204;-81
2023/02/10 11:42:23;;;;;;;6.07;3.27;;;;;;;;;;5101775;28;20231;-81
2023/02/10 11:44:55;;;;;;;4.30;2.90;;;;;;;;;;5106318;28;20228;-81
2023/02/10 11:47:22;;;;;;;4.20;3.07;;;;;;;;;;5104969;28;20265;-81
2023/02/10 11:49:50;;;;;;;5.10;3.60;;;;;;;;;;5092662;28;20200;-81
2023/02/10 11:52:18;;;;;;;5.80;4.27;;;;;;;;;;5105424;28;20668;-81
2023/02/10 11:54:45;;;;;;;6.27;4.50;;;;;;;;;;5098939;28;20682;-80
2023/02/10 12:00:20;;;;;;;8.70;5.27;;;;;;;;;;5092077;28;20685;-81
2023/02/10 12:03:25;;;;;;;5.77;4.23;;;;;;;;;;5098277;28;20608;-80
2023/02/10 12:05:58;;;;;;;5.93;4.00;;;;;;;;;;5051083;28;20681;-81
2023/02/10 12:08:31;;;;;;;5.70;4.23;;;;;;;;;;5098540;28;20199;-81
2023/02/10 12:11:02;;;;;;;4.53;3.20;;;;;;;;;;5106227;28;20204;-80
2023/02/10 12:13:34;;;;;;;4.57;3.03;;;;;;;;;;5105440;28;20203;-80
2023/02/10 12:16:10;;;;;;;4.53;3.30;;;;;;;;;;5104626;28;20196;-82
2023/02/10 12:18:48;;;;;;;6.00;4.00;;;;;;;;;;5107203;28;20207;-80
2023/02/10 12:21:29;;;;;;;5.47;3.77;;;;;;;;;;5111956;28;20295;-81
2023/02/10 12:24:03;;;;;;;4.47;3.50;;;;;;;;;;5097155;28;20202;-80
2023/02/10 12:26:37;;;;;;;6.67;5.07;;;;;;;;;;5111840;28;20585;-83
2023/02/10 12:29:14;;;;;;;6.03;5.43;;;;;;;;;;5100188;28;20195;-81
2023/02/10 12:31:46;;;;;;;7.33;5.87;;;;;;;;;;5111418;28;20204;-81
2023/02/10 12:34:23;;;;;;;21.53;13.73;;;;;;;;;;5111764;28;20739;-80
2023/02/10 12:36:59;;;;;;;10.53;6.93;;;;;;;;;;5111250;28;20734;-80
2023/02/10 12:39:31;;;;;;;6.97;5.10;;;;;;;;;;5111950;28;20211;-80
2023/02/10 12:42:03;;;;;;;8.17;5.10;;;;;;;;;;5098744;28;20227;-82
2023/02/10 12:44:43;;;;;;;10.30;4.83;;;;;;;;;;5111944;28;20227;-82
2023/02/10 12:47:20;;;;;;;5.83;4.90;;;;;;;;;;5111200;28;20592;-80
2023/02/10 12:49:56;;;;;;;5.90;5.00;;;;;;;;;;5105882;28;20204;-80
2023/02/10 12:52:27;;;;;;;6.23;4.40;;;;;;;;;;5104932;28;20203;-80
2023/02/10 12:54:56;;;;;;;10.10;8.20;;;;;;;;;;5111397;28;20215;-81
2023/02/10 12:57:27;;;;;;;7.83;4.97;;;;;;;;;;5110084;28;20208;-80
2023/02/10 13:00:00;;;;;;;6.90;4.67;;;;;;;;;;5100032;28;20693;-80
2023/02/10 13:02:32;;;;;;;8.07;4.87;;;;;;;;;;5110851;28;20630;-81
2023/02/10 13:05:03;;;;;;;7.40;5.20;;;;;;;;;;5111421;28;20207;-83
2023/02/10 13:07:37;;;;;;;5.23;4.60;;;;;;;;;;5098200;28;20207;-82
2023/02/10 13:10:16;;;;;;;6.90;4.70;;;;;;;;;;5098679;28;20203;-83
2023/02/10 13:12:45;;;;;;;4.70;3.83;;;;;;;;;;5098296;28;20211;-82
2023/02/10 13:15:17;;;;;;;5.53;4.00;;;;;;;;;;5097325;28;20192;-80
2023/02/10 13:17:46;;;;;;;6.10;4.33;;;;;;;;;;5099489;28;20199;-81
2023/02/10 13:20:25;;;;;;;6.07;4.80;;;;;;;;;;5111097;28;20617;-80
2023/02/10 13:22:56;;;;;;;5.40;4.00;;;;;;;;;;5110940;28;20752;-80
2023/02/10 13:25:28;;;;;;;7.17;5.17;;;;;;;;;;5111013;28;20199;-81
2023/02/10 13:28:02;;;;;;;4.47;3.90;;;;;;;;;;5099365;28;20628;-80
2023/02/10 13:30:55;;;;;;;8.10;5.83;;;;;;;;;;5104147;28;20203;-80
2023/02/10 13:33:28;;;;;;;7.37;6.53;;;;;;;;;;5090848;28;20204;-80
2023/02/10 13:35:55;;;;;;;6.23;5.00;;;;;;;;;;5101864;28;20195;-80
2023/02/10 13:38:25;;;;;;;6.93;4.67;;;;;;;;;;5093238;28;20219;-81
2023/02/10 13:41:40;;;;;;;4.53;3.20;;;;;;;;;;5091429;28;20227;-80
2023/02/10 13:43:40;;;;;;;14.80;10.00;;;;;;;;;;5099083;28;20203;-80
2023/02/10 13:46:20;;;;;;;6.53;4.87;;;;;;;;;;5108737;28;20678;-81
2023/02/10 13:48:52;;;;;;;5.67;4.17;;;;;;;;;;5104130;28;20203;-80
2023/02/10 13:51:29;;;;;;;5.80;4.60;;;;;;;;;;5109397;28;20201;-80
2023/02/10 13:53:56;;;;;;;5.00;4.40;;;;;;;;;;5094908;28;20207;-80
2023/02/10 13:56:27;;;;;;;5.67;5.07;;;;;;;;;;5108066;28;20590;-80
2023/02/10 13:58:55;;;;;;;5.07;4.33;;;;;;;;;;5094604;28;20197;-81
2023/02/10 14:01:35;;;;;;;9.67;7.73;;;;;;;;;;5101233;28;20731;-81
2023/02/10 14:04:02;;;;;;;16.27;9.93;;;;;;;;;;5101040;28;20747;-80
2023/02/10 14:06:37;;;;;;;8.83;5.63;;;;;;;;;;5114568;28;20587;-80
2023/02/10 14:09:07;;;;;;;6.43;4.90;;;;;;;;;;5096773;28;20192;-81
2023/02/10 14:11:42;;;;;;;5.20;4.63;;;;;;;;;;5094214;28;20240;-81
2023/02/10 14:14:21;;;;;;;8.97;6.43;;;;;;;;;;5113127;28;20339;-81
2023/02/10 14:16:51;;;;;;;10.23;6.00;;;;;;;;;;5113856;28;20734;-81
2023/02/10 14:19:24;;;;;;;5.97;4.77;;;;;;;;;;5114533;28;20219;-81
2023/02/10 14:21:52;;;;;;;9.20;5.77;;;;;;;;;;5112168;28;20234;-81
2023/02/10 14:24:24;;;;;;;6.40;4.63;;;;;;;;;;5094018;28;20207;-81
2023/02/10 14:26:51;;;;;;;6.17;4.40;;;;;;;;;;5107676;28;20617;-81
2023/02/10 14:29:20;;;;;;;8.30;3.87;;;;;;;;;;5104178;28;20195;-81
2023/02/10 14:31:52;;;;;;;5.30;3.73;;;;;;;;;;5096614;28;20705;-81
2023/02/10 14:34:22;;;;;;;4.77;3.67;;;;;;;;;;5105334;28;20207;-81
2023/02/10 14:36:54;;;;;;;7.07;4.70;;;;;;;;;;5108548;28;20204;-81
2023/02/10 14:39:21;;;;;;;8.27;5.97;;;;;;;;;;5106679;28;20210;-81
2023/02/10 14:41:49;;;;;;;10.17;6.73;;;;;;;;;;5100398;28;20227;-80
2023/02/10 14:44:24;;;;;;;7.97;5.07;;;;;;;;;;5113808;28;20661;-81
2023/02/10 14:46:53;;;;;;;6.50;4.70;;;;;;;;;;5101051;28;20277;-81
2023/02/10 14:49:22;;;;;;;13.60;7.03;;;;;;;;;;5111743;28;20219;-81
2023/02/10 14:51:52;;;;;;;10.43;6.13;;;;;;;;;;5101976;28;20218;-81